Time;durP1;ratioP1;P1;durP2;ratioP2;P2;SDS_P1;SDS_P2;PMS_P1;PMS_P2;Temp;Humidity;BMP_temperature;BMP_pressure;BME280_temperature;BME280_humidity;BME280_pressure;Samples;Min_cycle;Max_cycle;Signal;HPM_P1;HPM_P2
2022/06/25 00:01:20;;;;;;;50.28;30.85;;;15.90;99.90;;;;;;4939393;28;20043;-67
2022/06/25 00:03:46;;;;;;;57.72;28.08;;;16.00;99.90;;;;;;4964823;28;20035;-67
2022/06/25 00:06:13;;;;;;;46.97;27.80;;;15.90;99.90;;;;;;4982245;28;20420;-67
2022/06/25 00:08:39;;;;;;;46.03;28.85;;;15.80;99.90;;;;;;4958538;28;20501;-67
2022/06/25 00:11:06;;;;;;;45.03;28.55;;;15.80;99.90;;;;;;4964227;28;20031;-67
2022/06/25 00:13:32;;;;;;;44.15;27.58;;;15.80;99.90;;;;;;4957739;28;20035;-67
2022/06/25 00:15:59;;;;;;;45.58;28.88;;;15.70;99.90;;;;;;4979017;28;20035;-67
2022/06/25 00:18:25;;;;;;;52.55;30.85;;;15.70;99.90;;;;;;4956840;28;20063;-67
2022/06/25 00:20:51;;;;;;;43.17;28.20;;;15.60;99.90;;;;;;4948991;28;20047;-67
2022/06/25 00:23:17;;;;;;;46.00;29.08;;;15.70;99.90;;;;;;4956631;28;20045;-67
2022/06/25 00:25:43;;;;;;;55.22;32.15;;;15.50;99.90;;;;;;4962799;28;20088;-68
2022/06/25 00:28:08;;;;;;;61.47;33.50;;;15.60;99.90;;;;;;4957260;28;20042;-67
2022/06/25 00:30:34;;;;;;;62.00;36.33;;;15.60;99.90;;;;;;4959399;28;20043;-67
2022/06/25 00:33:01;;;;;;;55.97;32.88;;;15.60;99.90;;;;;;4942445;28;20031;-67
2022/06/25 00:35:27;;;;;;;64.65;38.22;;;15.50;99.90;;;;;;4972441;28;20101;-67
2022/06/25 00:37:53;;;;;;;70.20;39.72;;;15.60;99.90;;;;;;4984522;28;20059;-67
2022/06/25 00:40:18;;;;;;;83.53;42.28;;;15.60;99.90;;;;;;4953057;28;20042;-67
2022/06/25 00:42:50;;;;;;;64.43;38.00;;;15.60;99.90;;;;;;4953324;28;20425;-67
2022/06/25 00:45:16;;;;;;;70.47;38.70;;;15.70;99.90;;;;;;4958807;28;20091;-67
2022/06/25 00:47:42;;;;;;;62.00;36.15;;;15.70;99.90;;;;;;4954822;28;20089;-67
2022/06/25 00:50:08;;;;;;;58.03;35.28;;;15.70;99.90;;;;;;4958148;28;20070;-67
2022/06/25 00:52:39;;;;;;;62.65;36.50;;;15.70;99.90;;;;;;4959740;28;20046;-67
2022/06/25 00:55:09;;;;;;;58.97;35.97;;;15.70;99.90;;;;;;4973897;28;20039;-67
2022/06/25 00:57:39;;;;;;;62.92;37.13;;;15.70;99.90;;;;;;4947960;28;20489;-67
2022/06/25 01:00:08;;;;;;;67.70;37.85;;;15.70;99.90;;;;;;4958561;28;20043;-67
2022/06/25 01:02:35;;;;;;;73.93;39.92;;;15.80;99.90;;;;;;4959155;28;20030;-67
2022/06/25 01:05:05;;;;;;;69.65;38.85;;;15.70;99.90;;;;;;4958348;28;20043;-67
2022/06/25 01:07:30;;;;;;;67.35;37.47;;;15.80;99.90;;;;;;4949074;28;20096;-67
2022/06/25 01:09:56;;;;;;;62.30;35.97;;;15.70;99.90;;;;;;4951711;28;20130;-67
2022/06/25 01:12:22;;;;;;;60.83;35.30;;;15.80;99.90;;;;;;4958437;28;20046;-67
2022/06/25 01:15:00;;;;;;;57.60;34.72;;;15.70;99.90;;;;;;4958923;28;20037;-67
2022/06/25 01:17:26;;;;;;;58.00;34.25;;;15.70;99.90;;;;;;4977536;28;20057;-68
2022/06/25 01:19:51;;;;;;;53.95;33.38;;;15.80;99.90;;;;;;4958347;28;20441;-67
2022/06/25 01:22:17;;;;;;;58.83;33.22;;;15.70;99.90;;;;;;4956226;28;20129;-67
2022/06/25 01:24:43;;;;;;;55.83;32.85;;;15.70;99.90;;;;;;4958091;28;20047;-67
2022/06/25 01:27:14;;;;;;;53.75;33.03;;;15.70;99.90;;;;;;4956571;28;20039;-67
2022/06/25 01:29:39;;;;;;;50.53;31.73;;;15.80;99.90;;;;;;4979389;28;20034;-68
2022/06/25 01:32:05;;;;;;;54.38;31.88;;;15.70;99.90;;;;;;4958568;28;20038;-67
2022/06/25 01:34:31;;;;;;;48.70;29.25;;;15.70;99.90;;;;;;4974989;28;20417;-67
2022/06/25 01:36:56;;;;;;;50.60;30.13;;;15.80;99.90;;;;;;4953756;28;20043;-67
2022/06/25 01:39:22;;;;;;;55.25;31.90;;;15.70;99.90;;;;;;4958069;28;20055;-67
2022/06/25 01:41:47;;;;;;;60.03;32.53;;;15.70;99.90;;;;;;4958599;28;20046;-68
2022/06/25 01:44:13;;;;;;;52.95;30.25;;;15.70;99.90;;;;;;4960021;28;20148;-67
2022/06/25 01:46:39;;;;;;;47.40;28.42;;;15.70;99.90;;;;;;4956595;28;20077;-67
2022/06/25 01:49:04;;;;;;;50.20;29.30;;;15.70;99.90;;;;;;4958090;28;20061;-68
2022/06/25 01:51:30;;;;;;;48.17;28.70;;;15.70;99.90;;;;;;4956319;28;20050;-67
2022/06/25 01:53:55;;;;;;;44.95;27.10;;;15.70;99.90;;;;;;4960922;28;20048;-68
2022/06/25 01:56:21;;;;;;;48.30;28.90;;;15.60;99.90;;;;;;4959128;28;20034;-68
2022/06/25 01:58:47;;;;;;;44.55;27.23;;;15.60;99.90;;;;;;4958220;28;20118;-68
2022/06/25 02:01:12;;;;;;;41.15;25.98;;;15.70;99.90;;;;;;4955665;28;20057;-68
2022/06/25 02:03:38;;;;;;;45.95;26.88;;;15.60;99.90;;;;;;4955088;28;20038;-68
2022/06/25 02:06:04;;;;;;;41.00;25.65;;;15.70;99.90;;;;;;4955384;28;20041;-68
2022/06/25 02:08:36;;;;;;;41.30;26.10;;;15.70;99.90;;;;;;4957369;28;20046;-68
2022/06/25 02:11:06;;;;;;;39.40;24.35;;;15.70;99.90;;;;;;4953568;28;20046;-68
2022/06/25 02:13:32;;;;;;;49.53;26.25;;;15.60;99.90;;;;;;4959611;28;20417;-68
2022/06/25 02:15:58;;;;;;;39.55;24.90;;;15.70;99.90;;;;;;4958115;28;20651;-68
2022/06/25 02:18:25;;;;;;;40.70;25.00;;;15.60;99.90;;;;;;4960588;28;20062;-69
2022/06/25 02:20:51;;;;;;;48.63;26.70;;;15.60;99.90;;;;;;4958059;28;20042;-69
2022/06/25 02:23:19;;;;;;;43.67;27.23;;;15.60;99.90;;;;;;4962809;28;20050;-69
2022/06/25 02:25:45;;;;;;;41.42;24.15;;;15.60;99.90;;;;;;4956908;28;20073;-69
2022/06/25 02:28:11;;;;;;;39.35;24.20;;;15.60;99.90;;;;;;4945316;28;20046;-68
2022/06/25 02:30:37;;;;;;;39.00;25.08;;;15.60;99.90;;;;;;4955332;28;20038;-69
2022/06/25 02:33:03;;;;;;;39.38;24.88;;;15.60;99.90;;;;;;4959700;28;20047;-68
2022/06/25 02:35:29;;;;;;;40.13;26.38;;;15.50;99.90;;;;;;4937440;28;20389;-68
2022/06/25 02:37:55;;;;;;;42.13;25.58;;;15.50;99.90;;;;;;4972373;28;20123;-68
2022/06/25 02:40:21;;;;;;;43.72;26.25;;;15.50;99.90;;;;;;4948545;28;20121;-68
2022/06/25 02:42:47;;;;;;;43.15;25.08;;;15.50;99.90;;;;;;4959802;28;20039;-68
2022/06/25 02:45:12;;;;;;;44.05;24.50;;;15.50;99.90;;;;;;4957453;28;20043;-69
2022/06/25 02:47:38;;;;;;;42.70;24.58;;;15.50;99.90;;;;;;4960737;28;20101;-69
2022/06/25 02:50:05;;;;;;;43.50;24.67;;;15.50;99.90;;;;;;4956237;28;20058;-69
2022/06/25 02:52:31;;;;;;;40.30;24.58;;;15.40;99.90;;;;;;4960962;28;20038;-69
2022/06/25 02:54:56;;;;;;;39.38;23.90;;;15.50;99.90;;;;;;4958183;28;20065;-69
2022/06/25 03:00:07;;;;;;;40.63;24.33;;;15.50;99.90;;;;;;4956024;28;20045;-69
2022/06/25 03:02:33;;;;;;;39.05;23.25;;;15.40;99.90;;;;;;4942056;28;20043;-69
2022/06/25 03:04:59;;;;;;;41.13;24.00;;;15.50;99.90;;;;;;4957001;28;20046;-69
2022/06/25 03:07:25;;;;;;;49.25;26.13;;;15.40;99.90;;;;;;4968491;28;20401;-69
2022/06/25 03:09:50;;;;;;;47.90;26.77;;;15.50;99.90;;;;;;4956893;28;20031;-69
2022/06/25 03:12:16;;;;;;;44.97;25.42;;;15.50;99.90;;;;;;4957244;28;20066;-69
2022/06/25 03:14:42;;;;;;;53.13;27.05;;;15.50;99.90;;;;;;4975227;28;20100;-69
2022/06/25 03:17:07;;;;;;;55.00;26.50;;;15.50;99.90;;;;;;4963993;28;20038;-69
2022/06/25 03:19:33;;;;;;;36.65;23.98;;;15.40;99.90;;;;;;4961176;28;20081;-69
2022/06/25 03:21:58;;;;;;;47.97;26.38;;;15.50;99.90;;;;;;4961106;28;20045;-69
2022/06/25 03:24:24;;;;;;;39.75;24.88;;;15.50;99.90;;;;;;4963002;28;20093;-69
2022/06/25 03:26:50;;;;;;;38.83;23.30;;;15.40;99.90;;;;;;4960688;28;20042;-69
2022/06/25 03:29:15;;;;;;;47.92;24.52;;;15.40;99.90;;;;;;4959175;28;20034;-69
2022/06/25 03:31:41;;;;;;;57.15;27.15;;;15.50;99.90;;;;;;4950234;28;20039;-69
2022/06/25 03:34:07;;;;;;;44.67;25.58;;;15.40;99.90;;;;;;4960795;28;20559;-69
2022/06/25 03:36:33;;;;;;;48.65;25.88;;;15.40;99.90;;;;;;4957404;28;20057;-69
2022/06/25 03:38:59;;;;;;;41.47;25.15;;;15.50;99.90;;;;;;4960057;28;20659;-68
2022/06/25 03:41:37;;;;;;;52.53;25.60;;;15.40;99.90;;;;;;4959119;28;20398;-69
2022/06/25 03:44:08;;;;;;;49.13;25.25;;;15.50;99.90;;;;;;4961246;28;20059;-69
2022/06/25 03:46:35;;;;;;;47.42;25.83;;;15.50;99.90;;;;;;4959901;28;20038;-68
2022/06/25 03:49:02;;;;;;;49.33;26.75;;;15.60;99.90;;;;;;4957853;28;20489;-68
2022/06/25 03:51:28;;;;;;;57.97;26.85;;;15.60;99.90;;;;;;4958281;28;20491;-69
2022/06/25 03:53:54;;;;;;;44.38;25.33;;;15.60;99.90;;;;;;4962374;28;20065;-68
2022/06/25 03:56:20;;;;;;;44.13;24.50;;;15.60;99.90;;;;;;4955832;28;20038;-67
2022/06/25 03:58:46;;;;;;;44.08;23.20;;;15.60;99.90;;;;;;4956812;28;20031;-67
2022/06/25 04:01:12;;;;;;;44.42;25.40;;;15.70;99.90;;;;;;4958203;28;20047;-67
2022/06/25 04:03:39;;;;;;;45.58;24.30;;;15.70;99.90;;;;;;4956836;28;20039;-67
2022/06/25 04:06:05;;;;;;;44.28;24.10;;;15.70;99.90;;;;;;4957098;28;20038;-66
2022/06/25 04:08:31;;;;;;;46.75;23.95;;;15.80;99.90;;;;;;4983559;28;20383;-67
2022/06/25 04:10:57;;;;;;;44.30;25.48;;;15.70;99.90;;;;;;4961841;28;20046;-67
2022/06/25 04:13:22;;;;;;;40.40;23.00;;;15.80;99.90;;;;;;4962020;28;20169;-66
2022/06/25 04:15:48;;;;;;;45.75;25.38;;;15.80;99.90;;;;;;4959194;28;20548;-68
2022/06/25 04:18:13;;;;;;;54.45;26.30;;;15.80;99.90;;;;;;4959458;28;20385;-67
2022/06/25 04:20:39;;;;;;;50.85;24.58;;;15.80;99.90;;;;;;4959117;28;20034;-66
2022/06/25 04:23:05;;;;;;;42.30;24.65;;;15.80;99.90;;;;;;4962546;28;22028;-66
2022/06/25 04:25:31;;;;;;;57.22;26.23;;;15.90;99.90;;;;;;4982707;28;20074;-67
2022/06/25 04:30:41;;;;;;;36.35;23.13;;;16.00;99.90;;;;;;4961915;28;20093;-68
2022/06/25 04:33:06;;;;;;;38.03;22.63;;;16.00;99.90;;;;;;4959990;28;20445;-68
2022/06/25 04:35:32;;;;;;;35.40;22.00;;;16.10;99.90;;;;;;4958735;28;20038;-68
2022/06/25 04:37:57;;;;;;;44.72;22.52;;;16.10;99.90;;;;;;4962330;28;20046;-68
2022/06/25 04:40:23;;;;;;;39.30;22.27;;;16.20;99.90;;;;;;4950300;28;20035;-69
2022/06/25 04:42:49;;;;;;;37.15;21.63;;;16.20;99.90;;;;;;4955129;28;20074;-70
2022/06/25 04:45:14;;;;;;;42.53;22.58;;;16.40;99.90;;;;;;4960172;28;20039;-69
2022/06/25 04:47:40;;;;;;;35.95;22.40;;;16.40;99.90;;;;;;4959723;28;20038;-69
2022/06/25 04:50:07;;;;;;;38.35;21.70;;;16.50;99.90;;;;;;4960858;28;20035;-69
2022/06/25 04:52:33;;;;;;;41.42;23.13;;;16.50;99.90;;;;;;4977164;28;20493;-69
2022/06/25 04:54:59;;;;;;;38.13;22.20;;;16.50;99.90;;;;;;4977179;28;20050;-69
2022/06/25 04:57:25;;;;;;;36.53;22.33;;;16.70;99.90;;;;;;4957190;28;20038;-70
2022/06/25 04:59:50;;;;;;;37.20;22.30;;;16.70;99.90;;;;;;4967516;28;20062;-70
2022/06/25 05:02:16;;;;;;;40.05;22.10;;;16.80;99.90;;;;;;4957663;28;20074;-70
2022/06/25 05:04:41;;;;;;;37.30;21.02;;;16.80;99.90;;;;;;4960377;28;20065;-70
2022/06/25 05:07:07;;;;;;;35.47;21.92;;;16.80;99.90;;;;;;4952424;28;20042;-71
2022/06/25 05:09:33;;;;;;;36.53;21.75;;;16.90;99.90;;;;;;4954548;28;20038;-70
2022/06/25 05:11:58;;;;;;;34.08;21.17;;;17.00;99.90;;;;;;4963756;28;21465;-70
2022/06/25 05:14:24;;;;;;;32.75;20.55;;;17.00;99.90;;;;;;4975608;28;20138;-70
2022/06/25 05:16:50;;;;;;;31.17;20.30;;;17.10;99.90;;;;;;4955027;28;20046;-68
2022/06/25 05:19:15;;;;;;;31.92;19.58;;;17.20;99.90;;;;;;4959018;28;20065;-68
2022/06/25 05:21:41;;;;;;;30.23;19.90;;;17.20;99.90;;;;;;4956010;28;20537;-68
2022/06/25 05:24:06;;;;;;;33.65;20.17;;;17.30;99.90;;;;;;4956494;28;20522;-68
2022/06/25 05:26:32;;;;;;;33.05;20.60;;;17.40;99.90;;;;;;4952715;28;20130;-68
2022/06/25 05:28:58;;;;;;;33.33;19.92;;;17.50;99.90;;;;;;4954359;28;20473;-68
2022/06/25 05:31:24;;;;;;;26.65;18.25;;;17.50;99.90;;;;;;4954596;28;20522;-69
2022/06/25 05:33:50;;;;;;;29.40;18.48;;;17.60;99.90;;;;;;4955290;28;20093;-69
2022/06/25 05:36:16;;;;;;;30.40;17.98;;;17.70;99.90;;;;;;4952565;28;20401;-69
2022/06/25 05:38:42;;;;;;;26.80;16.75;;;17.80;99.90;;;;;;4948932;28;20047;-68
2022/06/25 05:41:10;;;;;;;24.70;16.40;;;17.70;99.90;;;;;;4955609;28;20035;-69
2022/06/25 05:43:37;;;;;;;25.60;16.63;;;17.90;99.90;;;;;;4954765;28;20062;-68
2022/06/25 05:46:02;;;;;;;25.48;15.75;;;18.00;99.90;;;;;;4953501;28;20051;-68
2022/06/25 05:48:28;;;;;;;23.55;15.63;;;18.00;99.90;;;;;;4950760;28;20054;-68
2022/06/25 05:50:54;;;;;;;23.08;14.75;;;18.10;99.90;;;;;;4948128;28;20035;-69
2022/06/25 05:53:20;;;;;;;20.88;14.15;;;18.10;99.90;;;;;;4954241;28;20043;-69
2022/06/25 05:55:46;;;;;;;24.67;14.23;;;18.20;99.90;;;;;;4948022;28;20501;-69
2022/06/25 05:58:12;;;;;;;20.95;13.88;;;18.20;99.90;;;;;;4952611;28;20031;-70
2022/06/25 06:00:39;;;;;;;19.70;13.85;;;18.20;99.90;;;;;;4953022;28;20466;-71
2022/06/25 06:03:05;;;;;;;24.95;13.95;;;18.30;99.90;;;;;;4937381;28;20755;-71
2022/06/25 06:05:31;;;;;;;23.50;14.10;;;18.30;99.90;;;;;;4953438;28;20046;-71
2022/06/25 06:07:56;;;;;;;19.83;13.02;;;18.30;99.90;;;;;;4950083;28;20046;-72
2022/06/25 06:10:22;;;;;;;20.98;13.27;;;18.40;99.90;;;;;;4947844;28;20057;-72
2022/06/25 06:12:48;;;;;;;22.75;12.52;;;18.50;99.90;;;;;;4953249;28;20042;-71
2022/06/25 06:15:13;;;;;;;21.08;12.73;;;18.60;99.90;;;;;;4953123;28;20037;-71
2022/06/25 06:17:39;;;;;;;22.85;12.40;;;18.70;99.90;;;;;;4952944;28;20548;-70
2022/06/25 06:20:07;;;;;;;20.67;12.57;;;18.80;99.90;;;;;;4953016;28;20030;-69
2022/06/25 06:22:33;;;;;;;19.98;12.57;;;18.90;99.90;;;;;;4970039;28;20739;-69
2022/06/25 06:24:58;;;;;;;17.40;11.82;;;19.00;99.90;;;;;;4951967;28;20137;-68
2022/06/25 06:27:24;;;;;;;22.55;12.07;;;19.00;99.90;;;;;;4949555;28;20042;-68
2022/06/25 06:29:50;;;;;;;16.95;11.25;;;19.10;99.90;;;;;;4953530;28;20130;-68
2022/06/25 06:32:16;;;;;;;17.45;10.85;;;19.20;99.90;;;;;;4948659;28;20547;-66
2022/06/25 06:34:42;;;;;;;16.45;10.73;;;19.30;99.90;;;;;;4951191;28;20037;-65
2022/06/25 06:37:07;;;;;;;17.58;10.82;;;19.30;99.90;;;;;;4952957;28;20058;-66
2022/06/25 06:39:33;;;;;;;17.08;10.30;;;19.40;99.90;;;;;;4949924;28;20047;-67
2022/06/25 06:41:59;;;;;;;16.80;10.25;;;19.40;99.90;;;;;;4953265;28;20049;-66
2022/06/25 06:44:24;;;;;;;16.73;9.63;;;19.50;99.90;;;;;;4948424;28;20039;-67
2022/06/25 06:46:50;;;;;;;27.50;10.70;;;19.50;99.90;;;;;;4952077;28;20466;-66
2022/06/25 06:49:15;;;;;;;17.73;10.15;;;19.60;99.90;;;;;;4958084;28;20101;-66
2022/06/25 06:51:41;;;;;;;17.30;11.35;;;19.70;99.90;;;;;;4957307;28;20043;-66
2022/06/25 06:54:06;;;;;;;18.38;10.73;;;19.70;99.90;;;;;;4958172;28;20043;-66
2022/06/25 06:56:32;;;;;;;16.55;10.48;;;19.70;99.90;;;;;;4942698;28;20042;-65
2022/06/25 06:59:05;;;;;;;15.82;9.32;;;19.60;99.90;;;;;;4946353;29;20293;-65
2022/06/25 07:01:30;;;;;;;15.82;7.97;;;19.70;99.90;;;;;;4973190;28;20053;-67
2022/06/25 07:03:56;;;;;;;13.85;8.32;;;19.70;99.90;;;;;;4958616;28;20393;-66
2022/06/25 07:06:22;;;;;;;12.20;8.20;;;19.60;99.90;;;;;;4957368;28;20058;-66
2022/06/25 07:08:48;;;;;;;15.73;8.18;;;19.70;99.90;;;;;;4958633;28;20062;-66
2022/06/25 07:11:29;;;;;;;11.77;7.80;;;19.80;99.90;;;;;;4957588;28;20450;-66
2022/06/25 07:14:00;;;;;;;11.60;7.67;;;19.80;99.90;;;;;;4958780;28;20045;-66
2022/06/25 07:16:26;;;;;;;12.77;8.05;;;20.00;99.90;;;;;;4955653;28;20517;-66
2022/06/25 07:18:53;;;;;;;16.63;8.60;;;20.10;99.90;;;;;;4940432;29;20043;-65
2022/06/25 07:21:20;;;;;;;14.55;8.77;;;20.10;99.90;;;;;;4951390;28;20038;-67
2022/06/25 07:23:45;;;;;;;10.55;8.43;;;20.10;99.90;;;;;;4959030;28;20102;-66
2022/06/25 07:26:15;;;;;;;14.65;8.23;;;20.10;99.90;;;;;;4958568;28;20050;-66
2022/06/25 07:28:40;;;;;;;16.25;8.45;;;20.10;99.90;;;;;;4968206;28;20053;-67
2022/06/25 07:31:06;;;;;;;14.25;9.00;;;20.10;99.90;;;;;;4958949;28;20050;-67
2022/06/25 07:33:32;;;;;;;15.25;8.90;;;20.20;99.90;;;;;;4978977;28;20042;-66
2022/06/25 07:35:58;;;;;;;15.00;8.00;;;20.30;99.90;;;;;;4971480;28;20456;-66
2022/06/25 07:38:53;;;;;;;12.55;8.68;;;20.40;99.90;;;;;;4959510;28;20038;-67
2022/06/25 07:41:19;;;;;;;15.13;8.98;;;20.60;99.90;;;;;;4940914;29;20051;-66
2022/06/25 07:43:44;;;;;;;14.20;8.98;;;20.60;99.90;;;;;;4940616;28;20049;-67
2022/06/25 07:46:10;;;;;;;14.15;8.40;;;20.70;99.90;;;;;;4950972;28;20122;-68
2022/06/25 07:48:37;;;;;;;11.88;7.43;;;20.70;99.90;;;;;;4955472;28;20043;-69
2022/06/25 07:53:46;;;;;;;15.18;8.25;;;20.70;99.90;;;;;;4958774;28;20607;-67
2022/06/25 07:56:12;;;;;;;15.77;8.82;;;20.70;99.90;;;;;;4954638;28;20082;-67
2022/06/25 07:58:37;;;;;;;12.60;8.45;;;20.80;99.90;;;;;;4957578;28;20239;-69
2022/06/25 08:01:06;;;;;;;12.30;8.20;;;20.80;99.90;;;;;;4955520;28;20061;-67
2022/06/25 08:04:25;;;;;;;15.45;7.85;;;21.00;99.90;;;;;;4946089;28;20035;-67
2022/06/25 08:06:51;;;;;;;14.88;8.18;;;21.10;99.90;;;;;;4944740;28;20043;-66
2022/06/25 08:09:16;;;;;;;14.02;8.35;;;21.30;99.90;;;;;;4954644;28;20401;-67
2022/06/25 08:11:42;;;;;;;18.38;7.78;;;21.40;99.90;;;;;;4957504;28;20047;-66
2022/06/25 08:14:08;;;;;;;12.77;8.68;;;21.40;99.90;;;;;;4965214;28;20481;-67
2022/06/25 08:16:34;;;;;;;11.95;7.53;;;21.50;99.90;;;;;;4960947;28;20034;-67
2022/06/25 08:18:59;;;;;;;16.10;7.30;;;21.60;99.90;;;;;;4965353;28;20485;-67
2022/06/25 08:21:25;;;;;;;13.82;7.80;;;21.80;99.90;;;;;;4956847;28;20398;-68
2022/06/25 08:23:51;;;;;;;17.92;8.38;;;21.90;99.90;;;;;;4957639;28;20090;-68
2022/06/25 08:26:17;;;;;;;14.82;7.78;;;22.00;99.90;;;;;;4956794;28;20600;-69
2022/06/25 08:28:44;;;;;;;11.13;8.00;;;22.10;99.90;;;;;;4958459;28;20051;-68
2022/06/25 08:31:10;;;;;;;14.65;7.22;;;22.10;99.90;;;;;;4942037;28;20485;-67
2022/06/25 08:33:36;;;;;;;12.48;7.47;;;22.20;99.90;;;;;;4957463;28;20030;-67
2022/06/25 08:36:02;;;;;;;14.13;7.65;;;22.20;99.90;;;;;;4957294;28;20070;-68
2022/06/25 08:38:27;;;;;;;15.52;7.22;;;22.30;99.90;;;;;;4941457;28;20038;-68
2022/06/25 08:40:58;;;;;;;12.20;6.53;;;22.30;99.90;;;;;;4956063;28;20043;-67
2022/06/25 08:43:24;;;;;;;10.52;6.80;;;22.40;99.90;;;;;;4952894;28;20039;-67
2022/06/25 08:45:50;;;;;;;11.80;7.13;;;22.40;99.90;;;;;;4957184;28;20129;-67
2022/06/25 08:48:23;;;;;;;13.07;5.78;;;22.40;99.90;;;;;;4956623;28;20393;-68
2022/06/25 08:50:50;;;;;;;9.23;5.65;;;22.40;99.90;;;;;;4956239;28;20050;-70
2022/06/25 08:53:16;;;;;;;10.25;4.20;;;22.40;99.90;;;;;;4955997;28;20635;-69
2022/06/25 08:55:44;;;;;;;9.77;4.72;;;22.50;99.90;;;;;;4956393;28;20043;-71
2022/06/25 08:58:12;;;;;;;9.70;4.60;;;22.40;99.90;;;;;;4955453;28;20118;-68
2022/06/25 09:00:42;;;;;;;10.20;4.38;;;22.50;99.90;;;;;;4956055;28;20047;-69
2022/06/25 09:03:09;;;;;;;6.18;4.03;;;22.60;99.90;;;;;;4955937;28;20039;-69
2022/06/25 09:05:40;;;;;;;12.30;4.68;;;22.60;99.90;;;;;;4955080;28;20035;-70
2022/06/25 09:08:08;;;;;;;9.52;4.10;;;22.80;99.90;;;;;;4952383;29;20376;-69
2022/06/25 09:10:35;;;;;;;10.00;4.50;;;22.80;99.90;;;;;;4936818;29;20312;-71
2022/06/25 09:13:03;;;;;;;8.90;4.00;;;22.90;99.90;;;;;;4936835;29;20549;-70
2022/06/25 09:15:40;;;;;;;10.13;3.92;;;22.90;99.90;;;;;;4947603;28;20057;-70
2022/06/25 09:18:12;;;;;;;9.02;3.63;;;22.90;99.90;;;;;;4955366;28;20125;-71
2022/06/25 09:21:04;;;;;;;7.35;3.10;;;22.90;99.90;;;;;;4953748;28;20466;-71
2022/06/25 09:23:35;;;;;;;8.38;3.63;;;22.90;99.90;;;;;;4953820;28;20046;-71
2022/06/25 09:26:05;;;;;;;10.98;3.55;;;22.80;99.90;;;;;;4955245;28;20038;-71
2022/06/25 09:28:44;;;;;;;10.07;3.33;;;22.90;99.90;;;;;;4954989;28;20061;-71
2022/06/25 09:31:09;;;;;;;4.82;3.03;;;23.00;99.90;;;;;;4942984;29;20051;-72
2022/06/25 09:33:40;;;;;;;5.53;3.38;;;23.20;99.90;;;;;;4936312;29;20088;-71
2022/06/25 09:36:10;;;;;;;11.43;3.20;;;23.30;99.90;;;;;;4935632;29;20077;-71
2022/06/25 09:38:48;;;;;;;8.20;3.85;;;23.40;99.90;;;;;;4950089;28;20043;-71
2022/06/25 09:41:14;;;;;;;6.03;2.90;;;23.40;99.90;;;;;;4936298;29;20082;-69
2022/06/25 09:43:41;;;;;;;7.88;3.42;;;23.40;99.90;;;;;;4936526;28;20423;-71
2022/06/25 09:46:07;;;;;;;5.88;2.90;;;23.20;99.90;;;;;;4958415;28;20081;-69
2022/06/25 09:48:35;;;;;;;10.60;3.30;;;22.90;99.90;;;;;;4972132;28;20074;-72
2022/06/25 09:51:08;;;;;;;8.32;3.65;;;22.80;99.90;;;;;;4955187;28;20078;-70
2022/06/25 09:53:43;;;;;;;9.43;3.83;;;22.90;99.90;;;;;;4962636;28;20196;-71
2022/06/25 09:56:10;;;;;;;6.90;3.45;;;23.00;99.90;;;;;;4935583;29;20394;-70
2022/06/25 09:58:37;;;;;;;6.80;3.30;;;23.20;99.90;;;;;;4947771;28;20125;-71
2022/06/25 10:01:03;;;;;;;4.78;3.30;;;23.30;99.90;;;;;;4955042;28;20258;-72
2022/06/25 10:03:31;;;;;;;11.32;3.70;;;23.30;99.90;;;;;;4954751;28;20122;-71
2022/06/25 10:05:58;;;;;;;6.50;3.42;;;23.20;99.90;;;;;;4954929;28;20054;-69
2022/06/25 10:08:26;;;;;;;5.18;3.65;;;23.10;99.90;;;;;;4941219;28;20042;-69
2022/06/25 10:10:54;;;;;;;10.70;3.50;;;23.20;99.90;;;;;;4958875;28;20133;-68
2022/06/25 10:13:21;;;;;;;6.10;3.78;;;23.20;99.90;;;;;;4961024;28;20073;-69
2022/06/25 10:15:47;;;;;;;5.63;3.78;;;23.20;99.90;;;;;;4958391;28;20041;-68
2022/06/25 10:18:13;;;;;;;7.95;3.60;;;23.40;99.90;;;;;;4958461;28;20038;-68
2022/06/25 10:20:40;;;;;;;9.90;4.20;;;23.60;99.90;;;;;;4957014;28;20042;-71
2022/06/25 10:23:08;;;;;;;8.82;4.25;;;23.80;99.90;;;;;;4967030;28;20481;-69
2022/06/25 10:25:35;;;;;;;7.05;4.13;;;23.70;99.90;;;;;;4935689;28;20039;-69
2022/06/25 10:28:08;;;;;;;14.02;4.78;;;23.60;99.90;;;;;;4953719;28;20050;-70
2022/06/25 10:30:51;;;;;;;9.07;4.65;;;23.50;99.90;;;;;;4966897;28;20045;-69
2022/06/25 10:33:21;;;;;;;11.38;4.53;;;23.40;99.90;;;;;;4963645;28;20038;-69
2022/06/25 10:35:47;;;;;;;9.88;4.53;;;23.40;99.90;;;;;;4962441;28;20043;-69
2022/06/25 10:38:24;;;;;;;7.60;4.97;;;23.50;99.90;;;;;;4963294;28;20125;-70
2022/06/25 10:40:58;;;;;;;8.57;4.50;;;23.50;99.90;;;;;;4978724;28;20039;-70
2022/06/25 10:43:42;;;;;;;9.13;3.83;;;23.40;99.90;;;;;;4962969;28;20073;-67
2022/06/25 10:46:28;;;;;;;7.93;4.30;;;23.20;99.90;;;;;;4962891;28;20039;-68
2022/06/25 10:49:07;;;;;;;6.72;3.95;;;23.00;99.90;;;;;;4965297;28;20042;-68
2022/06/25 10:51:51;;;;;;;8.07;4.05;;;22.80;99.90;;;;;;4961604;28;20552;-69
2022/06/25 10:54:22;;;;;;;10.02;4.00;;;22.70;99.90;;;;;;4958985;28;20100;-68
2022/06/25 10:56:53;;;;;;;8.90;4.40;;;22.60;99.90;;;;;;4962848;28;20046;-69
2022/06/25 10:59:48;;;;;;;10.10;4.80;;;22.50;99.90;;;;;;4945945;28;20049;-69
2022/06/25 11:02:17;;;;;;;7.95;4.82;;;22.60;99.90;;;;;;4956618;28;20051;-70
2022/06/25 11:04:54;;;;;;;7.15;4.53;;;22.60;99.90;;;;;;4958421;28;20137;-67
2022/06/25 11:07:22;;;;;;;8.73;4.95;;;22.60;99.90;;;;;;4962366;28;20050;-69
2022/06/25 11:10:01;;;;;;;9.20;4.95;;;22.50;99.90;;;;;;4965058;28;20038;-68
2022/06/25 11:12:34;;;;;;;9.13;5.28;;;22.30;99.90;;;;;;4960629;28;20134;-68
2022/06/25 11:15:05;;;;;;;9.60;5.65;;;22.00;99.90;;;;;;4955424;28;20121;-69
2022/06/25 11:17:31;;;;;;;21.33;7.78;;;21.50;99.90;;;;;;4972671;28;20427;-66
2022/06/25 11:20:12;;;;;;;19.75;9.35;;;21.10;99.90;;;;;;4965763;28;20151;-68
2022/06/25 11:22:49;;;;;;;15.88;9.63;;;20.60;99.90;;;;;;4965334;28;20058;-69
2022/06/25 11:30:49;;;;;;;13.85;10.25;;;19.80;99.90;;;;;;4956221;28;20081;-68
2022/06/25 11:33:15;;;;;;;16.73;10.73;;;19.70;99.90;;;;;;4957300;28;20039;-69
2022/06/25 11:35:44;;;;;;;20.05;11.32;;;19.70;99.90;;;;;;4956193;28;21760;-68
2022/06/25 11:38:17;;;;;;;16.35;10.75;;;19.70;99.90;;;;;;4958948;28;20054;-68
2022/06/25 11:40:43;;;;;;;18.92;11.38;;;19.70;99.90;;;;;;4944921;28;20035;-68
2022/06/25 11:43:09;;;;;;;21.65;10.55;;;19.90;99.90;;;;;;4955042;28;20038;-68
2022/06/25 11:46:07;;;;;;;14.48;10.43;;;20.30;99.90;;;;;;4961124;28;20042;-68
2022/06/25 11:48:33;;;;;;;12.13;8.32;;;20.60;99.90;;;;;;4944231;28;20094;-68
2022/06/25 11:51:00;;;;;;;13.93;8.15;;;21.00;99.90;;;;;;4957936;28;20482;-69
2022/06/25 11:53:26;;;;;;;14.32;8.38;;;21.30;99.90;;;;;;4962199;28;20041;-68
2022/06/25 11:55:58;;;;;;;14.23;8.75;;;21.40;99.90;;;;;;4959914;28;20392;-68
2022/06/25 11:58:26;;;;;;;12.55;8.48;;;21.30;99.90;;;;;;4938016;28;20438;-67
2022/06/25 12:00:58;;;;;;;11.07;8.45;;;21.30;99.90;;;;;;4969504;28;20445;-68
2022/06/25 12:03:26;;;;;;;10.75;8.52;;;21.10;99.90;;;;;;4955793;28;20039;-67
2022/06/25 12:05:53;;;;;;;14.10;9.65;;;21.00;99.90;;;;;;4970172;28;20035;-68
2022/06/25 12:08:20;;;;;;;14.98;10.50;;;20.90;99.90;;;;;;4962238;28;20074;-68
2022/06/25 12:10:47;;;;;;;11.75;9.60;;;20.80;99.90;;;;;;4953480;28;20066;-70
2022/06/25 12:13:15;;;;;;;13.98;10.27;;;20.70;99.90;;;;;;4956458;28;20049;-69
2022/06/25 12:15:41;;;;;;;15.77;10.48;;;20.50;99.90;;;;;;4955622;28;20042;-69
2022/06/25 12:18:07;;;;;;;17.90;11.10;;;20.40;99.90;;;;;;4987565;28;20043;-69
2022/06/25 12:20:33;;;;;;;16.13;10.88;;;20.30;99.90;;;;;;4960367;28;20057;-69
2022/06/25 12:23:00;;;;;;;18.00;12.02;;;20.20;99.90;;;;;;4931041;28;20046;-69
2022/06/25 12:25:30;;;;;;;16.60;11.52;;;20.30;99.90;;;;;;4957293;28;20043;-69
2022/06/25 12:27:56;;;;;;;19.52;12.52;;;20.30;99.90;;;;;;4961306;28;20452;-69
2022/06/25 12:30:23;;;;;;;16.10;12.43;;;20.30;99.90;;;;;;4962004;28;20042;-68
2022/06/25 12:32:49;;;;;;;18.00;12.65;;;20.50;99.90;;;;;;4960527;28;20045;-68
2022/06/25 12:35:19;;;;;;;16.83;12.35;;;20.60;99.90;;;;;;4954947;28;20070;-68
2022/06/25 12:38:03;;;;;;;17.58;12.98;;;20.70;99.90;;;;;;4957740;28;20061;-68
2022/06/25 12:40:30;;;;;;;16.02;12.55;;;20.80;99.90;;;;;;4963354;28;20336;-68
2022/06/25 12:43:01;;;;;;;18.70;12.20;;;21.00;99.90;;;;;;4954392;28;20093;-68
2022/06/25 12:45:30;;;;;;;19.30;11.63;;;21.10;99.90;;;;;;4956200;28;20089;-68
2022/06/25 12:47:55;;;;;;;15.32;12.00;;;21.40;99.90;;;;;;4955228;28;20046;-68
2022/06/25 12:50:26;;;;;;;16.77;11.40;;;21.60;99.90;;;;;;4951280;28;20121;-68